TAF and METAR

Decoding for American and Canadian METARs and TAFs is not fully implemented.

Could not understand the following METAR

PAAD 280515Z AUTO 24022KT 1 1/2SM -SN BKN013 BKN023 OVC080 M05/M06 A2982 RMK AO2 T10551065
No TAF available for Point Thomson Sea Ice Airstrip
Point Thomson Sea Ice Airstrip in United States of America at 8m

Latest 5 airports